Francisco Lazaro da Silveira Airport

BR-0125 · 米纳斯吉拉斯州, 巴西

METAR的历史 BR-0125 · Francisco Lazaro da Silveira Airport

下面你可以看到过去几天的METARs。 选择年份以浏览从2007年开始的旧METAR。

2024年4月15日

时间 代码 天气 温度 能见度 天花板 METAR/SPECI
12:00
V
27 °C 10 km+ - 030° 030° 15 kt METAR SBUL 151500Z 03015KT 9999 FEW026 27/17 Q1019
11:00
V
26 °C 10 km+ - 030° 030° 13 kt METAR SBUL 151400Z 03013KT 9999 FEW023 26/17 Q1020
10:00
V
25 °C 10 km+ - 050° 050° 12 kt METAR SBUL 151300Z 05012KT 9999 FEW023 25/17 Q1020
09:00
V
23 °C 10 km+ - 040° 040° 14 kt METAR SBUL 151200Z 04014KT CAVOK 23/17 Q1020
08:00
V
22 °C 10 km+ - 060° 060° 14 kt METAR SBUL 151100Z 06014KT CAVOK 22/17 Q1019
07:00
V
21 °C 10 km+ - 050° 050° 12 kt METAR SBUL 151000Z 05012KT CAVOK 21/17 Q1019
06:00
V
20 °C 10 km+ - 070° 070° 10 kt METAR SBUL 150900Z 07010KT CAVOK 20/17 Q1018
05:00
V
21 °C 10 km+ - 070° 070° 10 kt METAR SBUL 150800Z 07010KT CAVOK 21/17 Q1018
04:00
V
21 °C 10 km+ - 060° 060° 7 kt METAR SBUL 150700Z 06007KT CAVOK 21/17 Q1017
03:00
V
21 °C 10 km+ - 070° 070° 7 kt METAR SBUL 150600Z 07007KT CAVOK 21/15 Q1018
02:00
V
21 °C 10 km+ - 070° 070° 7 kt METAR SBUL 150500Z 07007KT CAVOK 21/17 Q1018
01:00
V
22 °C 10 km+ - 070° 070° 8 kt METAR SBUL 150400Z 07008KT CAVOK 22/17 Q1018
00:00
V
22 °C 10 km+ 10.000 ft 060° 060° 7 kt METAR SBUL 150300Z 06007KT 9999 FEW040 BKN100 22/17 Q1018

2024年4月14日

时间 代码 天气 温度 能见度 天花板 METAR/SPECI
23:00
V
23 °C 10 km+ 10.000 ft 070° 070° 7 kt METAR SBUL 150200Z 07007KT 9999 FEW040 BKN100 23/17 Q1019
22:00
V
23 °C 10 km+ - 080° 080° 6 kt METAR SBUL 150100Z 08006KT CAVOK 23/17 Q1019
21:00
V
23 °C 10 km+ - 070° 070° 5 kt METAR SBUL 150000Z 07005KT CAVOK 23/18 Q1018
20:00
V
23 °C 10 km+ - 070° 070° 4 kt METAR SBUL 142300Z 07004KT CAVOK 23/17 Q1017
19:00
V
23 °C 10 km+ - 070° 070° 5 kt METAR SBUL 142200Z 07005KT CAVOK 23/17 Q1016
18:00
V
25 °C 10 km+ - 040° 040° 7 kt METAR SBUL 142100Z 04007KT 9999 FEW035 25/17 Q1016
17:00
V
27 °C 10 km+ - 060° 060° 9 kt METAR SBUL 142000Z 06009KT 9999 FEW035 27/17 Q1016
16:00
V
27 °C 10 km+ - 030° 030° 9 kt METAR SBUL 141900Z 03009KT 9999 FEW035 27/18 Q1016
15:00
V
28 °C 10 km+ - 040° 040° 9 kt METAR SBUL 141800Z 04009KT 9999 FEW035 28/17 Q1017
14:00
V
26 °C 10 km+ - 040° 040° 10 kt METAR SBUL 141700Z 04010KT 9999 SCT030 26/18 Q1017
13:00
V
27 °C 10 km+ - 030° 030° 11 kt METAR SBUL 141600Z 03011KT 9999 SCT025 27/18 Q1018
12:00
V
26 °C 10 km+ - 030° 030° 15 kt METAR SBUL 141500Z 03015KT 9999 SCT025 26/17 Q1019
11:00
V
25 °C 10 km+ - 020° 020° 13 kt METAR SBUL 141400Z 02013KT 9999 FEW020 25/18 Q1020
10:00
V
25 °C 10 km+ - 030° 030° 12 kt METAR SBUL 141300Z 03012KT CAVOK 25/18 Q1020
09:00
V
23 °C 10 km+ - 070° 070° 9 kt METAR SBUL 141200Z 07009KT CAVOK 23/18 Q1020
08:00
V
21 °C 10 km+ - 080° 080° 8 kt METAR SBUL 141100Z 08008KT CAVOK 21/17 Q1019
07:00
V
20 °C 10 km+ - 080° 080° 7 kt METAR SBUL 141000Z 08007KT CAVOK 20/17 Q1018
06:00
V
20 °C 10 km+ - 080° 080° 8 kt METAR SBUL 140900Z 08008KT CAVOK 20/17 Q1018
05:00
V
20 °C 10 km+ - 080° 080° 6 kt METAR SBUL 140800Z 08006KT CAVOK 20/17 Q1018
04:00
V
21 °C 10 km+ - 080° 080° 8 kt METAR SBUL 140700Z 08008KT CAVOK 21/17 Q1017
03:00
V
21 °C 10 km+ - 080° 080° 8 kt METAR SBUL 140600Z 08008KT CAVOK 21/17 Q1018
02:00
V
21 °C 10 km+ - 090° 090° 8 kt METAR SBUL 140500Z 09008KT CAVOK 21/17 Q1017
01:00
V
21 °C 10 km+ - 080° 080° 8 kt METAR SBUL 140400Z 08008KT CAVOK 21/17 Q1018
00:00
V
22 °C 10 km+ - 070° 070° 8 kt METAR SBUL 140300Z 07008KT CAVOK 22/18 Q1018

2024年4月13日

时间 代码 天气 温度 能见度 天花板 METAR/SPECI
23:00
V
22 °C 10 km+ - 080° 080° 6 kt METAR SBUL 140200Z 08006KT CAVOK 22/18 Q1018
22:00
V
22 °C 10 km+ - 060° 060° 4 kt METAR SBUL 140100Z 06004KT 9999 FEW040 22/18 Q1018
21:00
V
23 °C 10 km+ - 060° 060° 5 kt METAR SBUL 140000Z 06005KT CAVOK 23/18 Q1018
20:00
V
24 °C 10 km+ - 060° 060° 6 kt METAR SBUL 132300Z 06006KT CAVOK 24/18 Q1017
19:00
V
24 °C 10 km+ - 070° 070° 5 kt METAR SBUL 132200Z 07005KT 9999 FEW040 24/17 Q1016
18:00
V
25 °C 10 km+ - 080° 080° 6 kt METAR SBUL 132100Z 08006KT 9999 FEW040 FEW045TCU 25/18 Q1016
17:00
V
28 °C 10 km+ - 060° 060° 8 kt METAR SBUL 132000Z 06008KT 9999 FEW036 SCT100 28/18 Q1016
16:00
V
28 °C 10 km+ 10.000 ft 060° 060° 10 kt METAR SBUL 131900Z 06010KT 9999 SCT040 BKN100 28/18 Q1017
15:00
V
27 °C 10 km+ 10.000 ft 070° 070° 10 kt METAR SBUL 131800Z 07010KT 9999 SCT035 BKN100 27/17 Q1018
14:00
V
27 °C 10 km+ 10.000 ft 080° 080° 9 kt METAR SBUL 131700Z 08009KT 9999 SCT033 BKN100 27/17 Q1018
13:00
V
27 °C 10 km+ 10.000 ft 060° 060° 11 kt METAR SBUL 131600Z 06011KT 9999 SCT026 BKN100 27/19 Q1019
12:00
V
26 °C 10 km+ - 050° 050° 11 kt METAR SBUL 131500Z 05011KT 9999 FEW026 SCT100 26/18 Q1020
11:00
V
26 °C 10 km+ - 060° 060° 14 kt METAR SBUL 131400Z 06014KT 9999 FEW023 26/18 Q1021
10:00
V
25 °C 10 km+ - 050° 050° 15 kt METAR SBUL 131300Z 05015KT CAVOK 25/18 Q1021
09:00
V
23 °C 10 km+ - 070° 070° 13 kt METAR SBUL 131200Z 07013KT CAVOK 23/18 Q1021
08:00
V
22 °C 10 km+ - 070° 070° 10 kt METAR SBUL 131100Z 07010KT CAVOK 22/18 Q1020
07:00
V
21 °C 10 km+ - 090° 090° 7 kt METAR SBUL 131000Z 09007KT CAVOK 21/18 Q1020
06:00
V
21 °C 10 km+ - 060° 060° 7 kt METAR SBUL 130900Z 06007KT CAVOK 21/18 Q1019
05:00
V
21 °C 10 km+ - 090° 090° 5 kt METAR SBUL 130800Z 09005KT CAVOK 21/19 Q1019
04:00
V
22 °C 10 km+ - 070° 070° 7 kt METAR SBUL 130700Z 07007KT CAVOK 22/19 Q1018
03:00
V
21 °C 10 km+ - 080° 080° 7 kt METAR SBUL 130600Z 08007KT CAVOK 21/19 Q1018
报告变更